KRSW

Southwest Florida International Airport

Airport
ICAO code
KRSW
Summary
ICAO Region
NAM
ICAO Territory
Location

Fort Myers, Florida,

Coordinates
26° 32' 11" N , 81° 45' 18" W
KCC
Metar
KRSW 191934Z 12008KT 10SM CLR 30/23 A2998 RMK AO2 LTG DSNT W TSE05 T03000233

Description

Southwest Florida International Airport is a public county-owned airport located in the South Fort Myers region of Lee County, Florida.

Climatology

Fort Myers stradles two climate classifications - humid “subtropical” climate (Köppen climate classification Cfa) - characterized by hot, humid summers and cool winters and tropical monsoon climate (Köppen climate classification Am) - monthly mean temperatures above 18°C in every month of the year and features wet and dry seasons. A tropical monsoon climate typically features less pronounced dry seasons than a tropical savanna climate and see less variance in temperatures during the course of the year. The driest month nearly always occurs at or soon after the "winter" solstice.

Runways

Designator Length Width Surface Rops
6/24 3658 46 ASP Yes/Yes

Airport map

Aerial View

SKYbrary Partners:

Safety knowledge contributed by: